Time,TemperatureF,DewpointF,PressureIn,WindDirection,WindDirectionDegrees,WindSpeedMPH,WindSpeedGustMPH,Humidity,HourlyPrecipIn,Conditions,Clouds,dailyrainin,SoftwareType,DateUTC
2013-03-26 00:09:00,34.9,27.4,29.70,NNE,13,1.3,3.8,74,0.00,,,0.00,WUHU216HW,2013-03-26 04:09:00,
2013-03-26 00:24:00,34.9,27.4,29.70,NNE,13,0.9,2.2,74,0.00,,,0.00,WUHU216HW,2013-03-26 04:24:00,
2013-03-26 00:39:00,34.9,27.1,29.70,NW,317,0.9,3.4,73,0.00,,,0.00,WUHU216HW,2013-03-26 04:39:00,
2013-03-26 00:54:00,34.9,27.1,29.70,NNW,337,1.1,2.7,73,0.00,,,0.00,WUHU216HW,2013-03-26 04:54:00,
2013-03-26 01:09:00,34.9,27.1,29.70,East,87,0.9,2.7,73,0.00,,,0.00,WUHU216HW,2013-03-26 05:09:00,
2013-03-26 01:24:00,34.7,26.6,29.70,West,264,1.2,4.0,72,0.00,,,0.00,WUHU216HW,2013-03-26 05:24:00,
2013-03-26 01:39:00,34.7,26.6,29.69,NW,319,0.8,2.5,72,0.00,,,0.00,WUHU216HW,2013-03-26 05:39:00,
2013-03-26 01:54:00,34.7,26.3,29.69,NW,305,0.9,2.5,71,0.00,,,0.00,WUHU216HW,2013-03-26 05:54:00,
2013-03-26 02:09:00,34.6,26.4,29.69,WNW,303,0.6,1.1,72,0.00,,,0.00,WUHU216HW,2013-03-26 06:09:00,
2013-03-26 02:24:00,34.6,26.1,29.69,NW,305,0.7,1.8,71,0.00,,,0.00,WUHU216HW,2013-03-26 06:24:00,
2013-03-26 02:39:00,34.4,25.9,29.69,NW,322,0.7,2.2,71,0.00,,,0.00,WUHU216HW,2013-03-26 06:39:00,
2013-03-26 02:54:00,34.4,25.9,29.69,NW,312,0.6,1.8,71,0.00,,,0.00,WUHU216HW,2013-03-26 06:54:00,
2013-03-26 03:09:00,34.2,25.4,29.69,North,1,0.4,1.8,70,0.00,,,0.00,WUHU216HW,2013-03-26 07:09:00,
2013-03-26 03:24:00,34.2,25.4,29.68,NW,309,0.8,2.5,70,0.00,,,0.00,WUHU216HW,2013-03-26 07:24:00,
2013-03-26 03:39:00,34.2,25.4,29.68,WNW,301,0.7,2.5,70,0.00,,,0.00,WUHU216HW,2013-03-26 07:39:00,
2013-03-26 03:54:00,34.2,25.4,29.68,WSW,253,0.8,1.8,70,0.00,,,0.00,WUHU216HW,2013-03-26 07:54:00,
2013-03-26 04:09:00,34.2,25.4,29.68,NW,310,0.6,1.8,70,0.00,,,0.00,WUHU216HW,2013-03-26 08:09:00,
2013-03-26 04:24:00,34.0,25.2,29.68,WNW,300,0.8,3.1,70,0.00,,,0.00,WUHU216HW,2013-03-26 08:24:00,
2013-03-26 04:39:00,33.8,25.0,29.68,NNW,329,0.5,1.8,70,0.00,,,0.00,WUHU216HW,2013-03-26 08:39:00,
2013-03-26 04:54:00,33.5,24.3,29.69,NW,315,0.8,1.6,69,0.00,,,0.00,WUHU216HW,2013-03-26 08:54:00,
2013-03-26 05:09:00,32.9,23.9,29.69,NW,323,0.6,1.6,69,0.00,,,0.00,WUHU216HW,2013-03-26 09:09:00,
2013-03-26 05:24:00,32.6,23.9,29.70,NW,315,0.5,0.9,70,0.00,,,0.00,WUHU216HW,2013-03-26 09:24:00,
2013-03-26 05:39:00,32.0,23.4,29.70,NW,322,0.6,1.3,70,0.00,,,0.00,WUHU216HW,2013-03-26 09:39:00,
2013-03-26 05:54:00,31.7,23.7,29.71,WNW,296,1.3,7.4,72,0.00,,,0.00,WUHU216HW,2013-03-26 09:54:00,
2013-03-26 06:09:00,31.3,23.1,29.71,WNW,297,0.9,2.2,71,0.00,,,0.00,WUHU216HW,2013-03-26 10:09:00,
2013-03-26 06:24:00,31.3,23.1,29.71,NW,304,1.0,2.2,71,0.00,,,0.00,WUHU216HW,2013-03-26 10:24:00,
2013-03-26 06:39:00,31.0,23.0,29.71,NW,315,0.8,0.9,72,0.00,,,0.00,WUHU216HW,2013-03-26 10:39:00,
2013-03-26 06:54:00,30.6,23.0,29.71,NNW,344,0.8,2.7,73,0.00,,,0.00,WUHU216HW,2013-03-26 10:54:00,
2013-03-26 07:09:00,30.2,22.9,29.72,North,6,0.7,2.9,74,0.00,,,0.00,WUHU216HW,2013-03-26 11:09:00,
2013-03-26 07:24:00,30.1,22.8,29.72,North,6,0.8,4.3,74,0.00,,,0.00,WUHU216HW,2013-03-26 11:24:00,
2013-03-26 07:39:00,30.2,23.2,29.73,ENE,60,0.8,2.2,75,0.00,,,0.00,WUHU216HW,2013-03-26 11:39:00,
2013-03-26 07:54:00,30.8,23.4,29.73,ESE,120,0.8,1.6,74,0.00,,,0.00,WUHU216HW,2013-03-26 11:54:00,
2013-03-26 08:09:00,32.6,24.8,29.74,ENE,62,1.2,3.6,73,0.00,,,0.00,WUHU216HW,2013-03-26 12:09:00,
2013-03-26 08:24:00,34.9,25.7,29.74,SSE,147,1.1,4.3,69,0.00,,,0.00,WUHU216HW,2013-03-26 12:24:00,
2013-03-26 08:39:00,36.4,26.1,29.75,WNW,295,1.8,5.1,66,0.00,,,0.00,WUHU216HW,2013-03-26 12:39:00,
2013-03-26 08:56:00,38.2,26.7,29.75,WNW,299,1.9,5.8,63,0.00,,,0.00,WUHU216HW,2013-03-26 12:56:00,
2013-03-26 09:10:00,39.2,26.0,29.75,WNW,297,2.3,5.8,59,0.00,,,0.00,WUHU216HW,2013-03-26 13:10:00,
2013-03-26 09:25:00,40.5,26.4,29.76,NNW,343,1.8,4.9,57,0.00,,,0.00,WUHU216HW,2013-03-26 13:25:00,
2013-03-26 09:41:00,41.0,25.6,29.76,ESE,109,2.2,4.5,54,0.00,,,0.00,WUHU216HW,2013-03-26 13:41:00,
2013-03-26 09:55:00,41.8,25.4,29.76,NW,309,2.1,5.4,52,0.00,,,0.00,WUHU216HW,2013-03-26 13:55:00,
2013-03-26 10:10:00,43.2,27.2,29.76,NW,304,2.4,6.3,53,0.00,,,0.00,WUHU216HW,2013-03-26 14:10:00,
2013-03-26 10:26:00,43.7,25.3,29.76,NW,310,1.8,6.9,48,0.00,,,0.00,WUHU216HW,2013-03-26 14:26:00,
2013-03-26 10:43:00,44.8,25.8,29.76,NE,56,2.3,6.5,47,0.00,,,0.00,WUHU216HW,2013-03-26 14:43:00,
2013-03-26 10:56:00,45.7,24.4,29.76,ENE,68,2.0,4.7,43,0.00,,,0.00,WUHU216HW,2013-03-26 14:56:00,
2013-03-26 11:11:00,46.1,22.4,29.76,East,98,2.1,5.4,39,0.00,,,0.00,WUHU216HW,2013-03-26 15:11:00,
2013-03-26 11:26:00,46.4,24.5,29.76,North,9,1.8,5.4,42,0.00,,,0.00,WUHU216HW,2013-03-26 15:26:00,
2013-03-26 11:41:00,46.3,23.2,29.76,NNW,336,2.6,6.3,40,0.00,,,0.00,WUHU216HW,2013-03-26 15:41:00,
2013-03-26 11:57:00,47.0,23.9,29.76,WNW,297,2.1,5.8,40,0.00,,,0.00,WUHU216HW,2013-03-26 15:57:00,
2013-03-26 12:11:00,47.0,23.2,29.76,NNW,348,2.6,7.6,39,0.00,,,0.00,WUHU216HW,2013-03-26 16:11:00,
2013-03-26 12:26:00,47.3,22.9,29.76,NNW,346,2.9,6.9,38,0.00,,,0.00,WUHU216HW,2013-03-26 16:26:00,
2013-03-26 12:41:00,46.6,24.1,29.76,WNW,295,2.1,6.7,41,0.00,,,0.00,WUHU216HW,2013-03-26 16:41:00,
2013-03-26 12:56:00,47.3,23.6,29.76,North,350,2.2,5.8,39,0.00,,,0.00,WUHU216HW,2013-03-26 16:56:00,
2013-03-26 13:11:00,48.1,24.2,29.76,NNE,15,1.8,7.2,39,0.00,,,0.00,WUHU216HW,2013-03-26 17:11:00,
2013-03-26 13:27:00,47.7,24.6,29.76,North,349,2.0,4.3,40,0.00,,,0.00,WUHU216HW,2013-03-26 17:27:00,
2013-03-26 13:41:00,48.6,24.0,29.76,WNW,302,2.0,6.0,38,0.00,,,0.00,WUHU216HW,2013-03-26 17:41:00,
2013-03-26 13:57:00,48.8,24.1,29.76,NNE,18,1.9,5.4,38,0.00,,,0.00,WUHU216HW,2013-03-26 17:57:00,
2013-03-26 14:12:00,47.9,24.0,29.76,North,4,2.1,5.1,39,0.00,,,0.00,WUHU216HW,2013-03-26 18:12:00,
2013-03-26 14:27:00,47.5,23.0,29.76,NW,316,1.8,5.4,38,0.00,,,0.00,WUHU216HW,2013-03-26 18:27:00,
2013-03-26 14:42:00,47.3,24.2,29.76,NW,319,1.4,4.3,40,0.00,,,0.00,WUHU216HW,2013-03-26 18:42:00,
2013-03-26 14:57:00,46.6,24.7,29.76,North,352,1.1,3.6,42,0.00,,,0.00,WUHU216HW,2013-03-26 18:57:00,
2013-03-26 15:12:00,46.8,24.3,29.75,NE,53,1.6,3.4,41,0.00,,,0.00,WUHU216HW,2013-03-26 19:12:00,
2013-03-26 15:27:00,46.4,25.0,29.76,NNW,336,1.4,3.1,43,0.00,,,0.00,WUHU216HW,2013-03-26 19:27:00,
2013-03-26 15:43:00,46.3,24.8,29.76,NW,318,2.2,6.9,43,0.00,,,0.00,WUHU216HW,2013-03-26 19:43:00,
2013-03-26 15:57:00,46.3,24.3,29.76,NW,314,2.9,7.6,42,0.00,,,0.00,WUHU216HW,2013-03-26 19:57:00,
2013-03-26 16:12:00,45.9,24.0,29.76,NW,321,1.7,4.7,42,0.00,,,0.00,WUHU216HW,2013-03-26 20:12:00,
2013-03-26 16:27:00,45.7,24.4,29.76,ENE,77,1.1,2.9,43,0.00,,,0.00,WUHU216HW,2013-03-26 20:27:00,
2013-03-26 16:42:00,45.7,24.4,29.77,NNW,336,1.4,4.9,43,0.00,,,0.00,WUHU216HW,2013-03-26 20:42:00,
2013-03-26 16:58:00,45.0,24.9,29.77,ENE,65,1.5,4.7,45,0.00,,,0.00,WUHU216HW,2013-03-26 20:58:00,
2013-03-26 17:12:00,44.6,25.0,29.78,North,6,1.3,4.0,46,0.00,,,0.00,WUHU216HW,2013-03-26 21:12:00,
2013-03-26 17:28:00,44.3,25.2,29.78,NNE,19,1.5,4.7,47,0.00,,,0.00,WUHU216HW,2013-03-26 21:28:00,
2013-03-26 17:43:00,43.7,25.3,29.79,NW,322,1.5,4.0,48,0.00,,,0.00,WUHU216HW,2013-03-26 21:43:00,
2013-03-26 17:58:00,43.0,25.2,29.80,NNW,333,1.3,4.5,49,0.00,,,0.00,WUHU216HW,2013-03-26 21:58:00,
2013-03-26 18:13:00,42.5,25.2,29.80,NW,322,0.8,2.0,50,0.00,,,0.00,WUHU216HW,2013-03-26 22:13:00,
2013-03-26 18:28:00,42.1,25.3,29.81,ENE,67,1.1,2.9,51,0.00,,,0.00,WUHU216HW,2013-03-26 22:28:00,
2013-03-26 18:43:00,41.2,24.4,29.81,NW,326,1.4,5.6,51,0.00,,,0.00,WUHU216HW,2013-03-26 22:43:00,
2013-03-26 18:58:00,40.7,23.9,29.82,NE,46,0.8,3.4,51,0.00,,,0.00,WUHU216HW,2013-03-26 22:58:00,
2013-03-26 19:13:00,40.0,24.1,29.82,NW,317,1.4,4.0,53,0.00,,,0.00,WUHU216HW,2013-03-26 23:13:00,
2013-03-26 19:28:00,39.4,23.6,29.83,NNE,27,0.7,2.9,53,0.00,,,0.00,WUHU216HW,2013-03-26 23:28:00,
2013-03-26 19:43:00,38.9,23.9,29.83,NW,317,1.1,1.6,55,0.00,,,0.00,WUHU216HW,2013-03-26 23:43:00,
2013-03-26 19:58:00,38.0,24.0,29.84,NW,315,1.3,2.2,57,0.00,,,0.00,WUHU216HW,2013-03-26 23:58:00,
2013-03-26 20:13:00,37.3,24.2,29.84,NW,313,1.1,1.8,59,0.00,,,0.00,WUHU216HW,2013-03-27 00:13:00,
2013-03-26 20:28:00,36.4,24.6,29.84,NW,309,1.1,2.5,62,0.00,,,0.00,WUHU216HW,2013-03-27 00:28:00,
2013-03-26 20:43:00,35.8,24.9,29.84,NW,310,1.3,2.5,64,0.00,,,0.00,WUHU216HW,2013-03-27 00:43:00,
2013-03-26 20:58:00,35.5,24.5,29.84,NW,310,1.1,2.5,64,0.00,,,0.00,WUHU216HW,2013-03-27 00:58:00,
2013-03-26 21:13:00,35.1,24.5,29.84,NW,304,1.3,2.0,65,0.00,,,0.00,WUHU216HW,2013-03-27 01:13:00,
2013-03-26 21:28:00,34.4,24.1,29.84,North,9,0.4,0.9,66,0.00,,,0.00,WUHU216HW,2013-03-27 01:28:00,
2013-03-26 21:43:00,33.8,23.9,29.84,NNW,348,0.5,1.3,67,0.00,,,0.00,WUHU216HW,2013-03-27 01:43:00,
2013-03-26 21:58:00,33.7,24.1,29.84,NW,315,0.5,0.9,68,0.00,,,0.00,WUHU216HW,2013-03-27 01:58:00,
2013-03-26 22:13:00,33.3,24.2,29.85,WNW,298,1.3,2.0,69,0.00,,,0.00,WUHU216HW,2013-03-27 02:13:00,
2013-03-26 22:28:00,32.8,24.0,29.85,North,1,0.4,0.9,70,0.00,,,0.00,WUHU216HW,2013-03-27 02:28:00,
2013-03-26 22:43:00,32.4,23.8,29.84,NW,323,0.4,1.1,70,0.00,,,0.00,WUHU216HW,2013-03-27 02:43:00,
2013-03-26 22:58:00,32.0,23.4,29.84,North,7,0.3,0.9,70,0.00,,,0.00,WUHU216HW,2013-03-27 02:58:00,
2013-03-26 23:13:00,31.9,23.6,29.84,NW,322,0.9,1.6,71,0.00,,,0.00,WUHU216HW,2013-03-27 03:13:00,
2013-03-26 23:28:00,31.7,23.7,29.84,NW,318,0.5,1.1,72,0.00,,,0.00,WUHU216HW,2013-03-27 03:28:00,
2013-03-26 23:43:00,31.5,23.5,29.84,NW,313,0.5,1.1,72,0.00,,,0.00,WUHU216HW,2013-03-27 03:43:00,
2013-03-26 23:58:00,31.3,23.9,29.83,WNW,303,1.1,2.9,74,0.00,,,0.00,WUHU216HW,2013-03-27 03:58:00,